x

Eel River - 17nm Wsw Of Eureka, Ca (46022) Wave Buoy

6:50pm - Thu 14th Dec 2017 All times are PST. -8 hours from GMT.

  • Sig Wave height 7.2ft
  • Swell Direction
  • Peak Period 16s
  • Average Period 8s
  • Wind
    13mph, 18mph gusts
  • Sea Temp 55°f
  • Air Temp 54°f
  • Sea Pressure 1021.4mb
  • Eel River - 17nm Wsw Of Eureka, Ca
  • Eel River - 17nm Wsw Of Eureka, Ca

More Historic Weather Station data

Upgrade to MSW Pro to gain access to the past 30 days of data for over 8000 Wavebouys and Weather Stations around the globe.

Join

Comparision Forecast

View Surf forecast
   
Thu 12/14 6:50pm 7ft 16s 8s 13 18 mph 1021.4mb 55f 54f
5:50pm 7.5ft 15s 8s 13 16 mph 1020.6mb 55f 55f
4:50pm 8ft 15s 8s 13 16 mph 1020.6mb 55f 55f
3:50pm 8ft 16s 8s 16 18 mph 1020.3mb 56f 55f
2:50pm 7ft 16s 7s 20 22 mph 1019.9mb 56f 55f
11:50am 7.5ft 17s 8s 13 16 mph 1021mb 55f 55f
10:50am 7ft 17s 8s 16 18 mph 1021.1mb 55f 55f
9:50am 7ft 14s 8s 16 18 mph 1020.8mb 55f 55f
8:50am 7ft 14s 8s 13 16 mph 1020.5mb 55f 55f
7:50am 6ft 17s 8s 4 7 mph 1019.9mb 55f 52f
6:50am 6.5ft 17s 8s 2 4 mph 1020mb 55f 51f
5:50am 6ft 14s 8s 4 9 mph 1019.7mb 55f 51f
4:50am 6.5ft 14s 8s 4 7 mph 1019.9mb 55f 52f
3:50am 7ft 15s 8s 11 13 mph 1019.9mb 55f 54f
2:50am 6ft 14s 8s 2 4 mph 1020.2mb 55f 52f
1:50am 6.5ft 15s 8s 9 11 mph 1019.7mb 55f 54f
12:50am 7ft 15s 8s 9 11 mph 1020.1mb 55f 54f
Wed 12/13 11:50pm 6.5ft 11s 8s 11 13 mph 1020.2mb 55f 54f
10:50pm 7ft 15s 8s 9 11 mph 1020.3mb 56f 54f
9:50pm 7ft 15s 8s 11 13 mph 1020.3mb 56f 54f
8:50pm 7.5ft 16s 9s 13 13 mph 1020.4mb 56f 54f
7:50pm 8ft 16s 10s 13 16 mph 1020.6mb 56f 54f
6:50pm 8.5ft 16s 10s 11 13 mph 1020.4mb 56f 54f
5:50pm 8ft 17s 10s 11 13 mph 1020.6mb 56f 54f
4:50pm 7ft 17s 9s 11 13 mph 1020.6mb 56f 54f
3:50pm 6ft 17s 8s 9 13 mph 1020.4mb 56f 55f
2:50pm 6ft 17s 8s 11 13 mph 1020.2mb 56f 55f
1:50pm 5.5ft 12s 8s 9 11 mph 1020.5mb 56f 55f
12:50pm 6ft 13s 8s 7 9 mph 1021mb 56f 55f
11:50am 6ft 12s 8s 4 4 mph 1021.9mb 56f 53f
10:50am 6ft 11s 8s 2 4 mph 1022.6mb 56f 52f
9:50am 6.5ft 12s 8s 7 7 mph 1022.4mb 56f 52f
8:50am 6.5ft 12s 8s 4 7 mph 1022.4mb 56f 51f
7:50am 6ft 12s 8s 4 7 mph 1022.3mb 56f 51f
6:50am 6ft 13s 8s 4 9 mph 1022.3mb 56f 53f
5:50am 6ft 12s 8s 7 9 mph 1022.1mb 56f 54f
4:50am 7ft 13s 9s 11 13 mph 1022.4mb 56f 54f
3:50am 6.5ft 11s 8s 9 11 mph 1022.9mb 56f 54f
2:50am 6ft 12s 8s 4 9 mph 1023.7mb 56f 53f
1:50am 7ft 12s 8s 2 7 mph 1023.5mb 56f 52f
12:50am 7ft 12s 8s 9 13 mph 1023.6mb 56f 54f
Tue 12/12 11:50pm 6.5ft 12s 8s 16 18 mph 1024mb 56f 54f
10:50pm 7ft 12s 9s 16 18 mph 1023.9mb 56f 55f
9:50pm 7.5ft 11s 9s 9 11 mph 1023.8mb 56f 54f
8:50pm 8.5ft 13s 10s 7 7 mph 1023.6mb 56f 55f
7:50pm 8.5ft 13s 10s 9 9 mph 1023.9mb 56f 55f
6:50pm 8.5ft 13s 10s 9 11 mph 1024mb 56f 55f
5:50pm 8.5ft 12s 10s 11 13 mph 1024.2mb 57f 56f
4:50pm 7.5ft 14s 10s 16 18 mph 1024mb 57f 55f
3:50pm 7.5ft 13s 11s 9 9 mph 1024.3mb 57f 56f
2:50pm 8ft 13s 11s 7 9 mph 1024.6mb 57f 55f
1:50pm 7ft 13s 10s 7 9 mph 1025.3mb 57f 55f
12:50pm 8ft 12s 11s 7 9 mph 1026.1mb 57f 55f
11:50am 8.5ft 13s 10s 2 4 mph 1027.2mb 57f 55f
10:50am 7.5ft 13s 9s 4 9 mph 1028mb 57f 53f
9:50am 8ft 13s 9s 11 16 mph 1027.4mb 57f 53f
8:50am 7.5ft 13s 9s 11 13 mph 1027mb 57f 53f
7:50am 7ft 13s 10s 9 13 mph 1027mb 57f 52f
6:50am 7ft 14s 10s 9 11 mph 1026.9mb 57f 52f
5:50am 6.5ft 14s 10s 4 9 mph 1027mb 57f 55f
4:50am 6ft 14s 9s 2 4 mph 1026.9mb 57f 55f
3:50am 7ft 14s 9s 9 11 mph 1027mb 57f 54f
1:50am 6ft 14s 8s 11 16 mph 1027.1mb 56f 55f
12:50am 6ft 13s 8s 16 18 mph 1026.7mb 56f 53f
Mon 12/11 11:50pm 6ft 14s 8s 18 20 mph 1026.6mb 55f 53f
10:50pm 5.5ft 12s 8s 11 13 mph 1026.9mb 55f 54f
9:50pm 5ft 14s 8s 11 13 mph 1026.7mb 55f 54f
8:50pm 5ft 15s 9s 9 13 mph 1026.3mb 55f 54f
7:50pm 5.5ft 14s 9s 11 16 mph 1026.1mb 55f 54f
6:50pm 5ft 13s 10s 7 11 mph 1026.4mb 55f 55f
5:50pm 5ft 15s 10s 9 11 mph 1025.8mb 55f 56f
4:50pm 5ft 15s 10s 4 7 mph 1026.1mb 55f 56f
3:50pm 5ft 14s 10s  -  2 mph 1025.7mb 55f 58f
2:50pm 4.5ft 15s 9s 2 4 mph 1025.2mb 55f 58f
1:50pm 5ft 13s 10s 4 7 mph 1025mb 55f 57f
12:50pm 5ft 13s 9s 9 11 mph 1025mb 55f 57f
11:50am 4.5ft 15s 8s 11 13 mph 1025.2mb 55f 56f
10:50am 5.5ft 15s 9s 11 11 mph 1025.7mb 55f 56f
9:50am 5ft 14s 7s 13 18 mph 1024.8mb 55f 54f
8:50am 5ft 15s 8s 16 18 mph 1023.9mb 54f 53f
7:50am 5ft 14s 8s 13 18 mph 1023.8mb 54f 53f
6:50am 5ft 15s 9s 13 16 mph 1023.5mb 54f 52f
5:50am 5.5ft 15s 8s 9 13 mph 1023.6mb 54f 53f
4:50am 5ft 15s 8s 7 11 mph 1023.8mb 54f 53f